GLD1974 SBRJ-SBME
Flight info
| Callsign | GLD1974 |
|---|---|
| Flight time | 0h 48m |
| Altitude | 7000 |
| Route | PUMSO DCT ME068 |
| Aircraft | C172/L-SFG/C |
Departure
| Time | 2026-05-06 15:27 |
|---|---|
| Airport | Santos Dumont Airport (SBRJ) |
Arrival
| Time | 2026-05-06 16:15 |
|---|---|
| Airport | Macaé Benedito Lacerda Airport (SBME) |
| Time | Latitude | Longitude | Altitude | Speed | Heading |
|---|---|---|---|---|---|
| 2026-05-06 15:24 | -22.90785 | -43.16300 | 19 ft | 17 kts | 354° |
| 2026-05-06 15:25 | -22.90668 | -43.16296 | 19 ft | 16 kts | 7° |
| 2026-05-06 15:25 | -22.90658 | -43.16309 | 19 ft | 13 kts | 174° |
| 2026-05-06 15:25 | -22.90886 | -43.16294 | 18 ft | 52 kts | 176° |
| 2026-05-06 15:25 | -22.91311 | -43.16284 | 98 ft | 63 kts | 174° |
| 2026-05-06 15:26 | -22.91782 | -43.16283 | 173 ft | 72 kts | 155° |
| 2026-05-06 15:26 | -22.92102 | -43.15879 | 287 ft | 73 kts | 134° |
| 2026-05-06 15:26 | -22.92448 | -43.15457 | 411 ft | 77 kts | 130° |
| 2026-05-06 15:26 | -22.92821 | -43.15016 | 542 ft | 81 kts | 130° |
| 2026-05-06 15:27 | -22.93200 | -43.14544 | 668 ft | 85 kts | 130° |
| 2026-05-06 15:27 | -22.93594 | -43.14050 | 795 ft | 88 kts | 130° |
| 2026-05-06 15:27 | -22.93862 | -43.13712 | 878 ft | 91 kts | 130° |
| 2026-05-06 15:27 | -22.94284 | -43.13180 | 1002 ft | 96 kts | 129° |
| 2026-05-06 15:28 | -22.94741 | -43.12634 | 1127 ft | 98 kts | 129° |
| 2026-05-06 15:28 | -22.95204 | -43.12091 | 1246 ft | 98 kts | 129° |
| 2026-05-06 15:28 | -22.95613 | -43.11504 | 1373 ft | 97 kts | 115° |
| 2026-05-06 15:28 | -22.95881 | -43.10831 | 1497 ft | 98 kts | 105° |
| 2026-05-06 15:29 | -22.96077 | -43.10117 | 1629 ft | 99 kts | 105° |
| 2026-05-06 15:29 | -22.96277 | -43.09397 | 1742 ft | 100 kts | 105° |
| 2026-05-06 15:29 | -22.96474 | -43.08670 | 1865 ft | 100 kts | 104° |
| 2026-05-06 15:29 | -22.96674 | -43.07944 | 1987 ft | 101 kts | 104° |
| 2026-05-06 15:30 | -22.96827 | -43.07207 | 2108 ft | 100 kts | 90° |
| 2026-05-06 15:30 | -22.96796 | -43.06453 | 2229 ft | 99 kts | 80° |
| 2026-05-06 15:30 | -22.96695 | -43.05717 | 2353 ft | 101 kts | 79° |
| 2026-05-06 15:30 | -22.96578 | -43.04957 | 2476 ft | 100 kts | 78° |
| 2026-05-06 15:31 | -22.96419 | -43.04176 | 2496 ft | 114 kts | 75° |
| 2026-05-06 15:31 | -22.96187 | -43.03335 | 2508 ft | 118 kts | 72° |
| 2026-05-06 15:31 | -22.95920 | -43.02447 | 2496 ft | 126 kts | 72° |
| 2026-05-06 15:32 | -22.95398 | -43.00693 | 2502 ft | 120 kts | 72° |
| 2026-05-06 15:32 | -22.95142 | -42.99846 | 2499 ft | 117 kts | 72° |
| 2026-05-06 15:32 | -22.94889 | -42.99008 | 2497 ft | 117 kts | 71° |
| 2026-05-06 15:32 | -22.94627 | -42.98175 | 2495 ft | 116 kts | 69° |
| 2026-05-06 15:33 | -22.94323 | -42.97363 | 2492 ft | 116 kts | 68° |
| 2026-05-06 15:33 | -22.94016 | -42.96555 | 2499 ft | 116 kts | 68° |
| 2026-05-06 15:33 | -22.93711 | -42.95723 | 2500 ft | 120 kts | 68° |
| 2026-05-06 15:33 | -22.93392 | -42.94866 | 2502 ft | 127 kts | 68° |
| 2026-05-06 15:34 | -22.93058 | -42.93978 | 2492 ft | 124 kts | 68° |
| 2026-05-06 15:34 | -22.92735 | -42.93126 | 2493 ft | 121 kts | 67° |
| 2026-05-06 15:34 | -22.92412 | -42.92284 | 2497 ft | 122 kts | 67° |
| 2026-05-06 15:34 | -22.92098 | -42.91451 | 2488 ft | 117 kts | 68° |
| 2026-05-06 15:35 | -22.91789 | -42.90649 | 2482 ft | 115 kts | 67° |
| 2026-05-06 15:35 | -22.91481 | -42.89852 | 2487 ft | 115 kts | 67° |
| 2026-05-06 15:35 | -22.91168 | -42.89040 | 2487 ft | 118 kts | 68° |
| 2026-05-06 15:35 | -22.90844 | -42.88203 | 2489 ft | 122 kts | 67° |
| 2026-05-06 15:36 | -22.90518 | -42.87346 | 2501 ft | 129 kts | 68° |
| 2026-05-06 15:36 | -22.90165 | -42.86424 | 2492 ft | 133 kts | 67° |
| 2026-05-06 15:36 | -22.89813 | -42.85515 | 2500 ft | 128 kts | 67° |
| 2026-05-06 15:36 | -22.89478 | -42.84636 | 2495 ft | 125 kts | 68° |
| 2026-05-06 15:37 | -22.89142 | -42.83775 | 2492 ft | 123 kts | 68° |
| 2026-05-06 15:37 | -22.88806 | -42.82920 | 2504 ft | 126 kts | 67° |
| 2026-05-06 15:37 | -22.88463 | -42.82044 | 2498 ft | 125 kts | 67° |
| 2026-05-06 15:37 | -22.88132 | -42.81180 | 2491 ft | 123 kts | 67° |
| 2026-05-06 15:38 | -22.87835 | -42.80340 | 2490 ft | 117 kts | 67° |
| 2026-05-06 15:38 | -22.87537 | -42.79515 | 2501 ft | 120 kts | 68° |
| 2026-05-06 15:38 | -22.87226 | -42.78652 | 2499 ft | 124 kts | 67° |
| 2026-05-06 15:38 | -22.86917 | -42.77779 | 2493 ft | 123 kts | 68° |
| 2026-05-06 15:39 | -22.86615 | -42.76924 | 2489 ft | 120 kts | 67° |
| 2026-05-06 15:39 | -22.86314 | -42.76087 | 2499 ft | 119 kts | 67° |
| 2026-05-06 15:39 | -22.86005 | -42.75242 | 2488 ft | 121 kts | 68° |
| 2026-05-06 15:39 | -22.85702 | -42.74466 | 2492 ft | 107 kts | 65° |
| 2026-05-06 15:40 | -22.85429 | -42.73721 | 2491 ft | 106 kts | 68° |
| 2026-05-06 15:40 | -22.85148 | -42.72975 | 2490 ft | 108 kts | 67° |
| 2026-05-06 15:40 | -22.84865 | -42.72239 | 2486 ft | 100 kts | 67° |
| 2026-05-06 15:40 | -22.84602 | -42.71511 | 2501 ft | 109 kts | 66° |
| 2026-05-06 15:41 | -22.84307 | -42.70716 | 2495 ft | 118 kts | 67° |
| 2026-05-06 15:41 | -22.83983 | -42.69884 | 2497 ft | 123 kts | 66° |
| 2026-05-06 15:41 | -22.83640 | -42.69030 | 2501 ft | 124 kts | 67° |
| 2026-05-06 15:41 | -22.83300 | -42.68178 | 2506 ft | 123 kts | 67° |
| 2026-05-06 15:42 | -22.82950 | -42.67301 | 2505 ft | 131 kts | 67° |
| 2026-05-06 15:42 | -22.82575 | -42.66372 | 2500 ft | 135 kts | 67° |
| 2026-05-06 15:42 | -22.82200 | -42.65454 | 2503 ft | 132 kts | 67° |
| 2026-05-06 15:42 | -22.81820 | -42.64530 | 2492 ft | 135 kts | 66° |
| 2026-05-06 15:43 | -22.81441 | -42.63607 | 2507 ft | 136 kts | 66° |
| 2026-05-06 15:43 | -22.81063 | -42.62672 | 2498 ft | 137 kts | 67° |
| 2026-05-06 15:43 | -22.80677 | -42.61732 | 2491 ft | 132 kts | 67° |
| 2026-05-06 15:43 | -22.80318 | -42.60846 | 2498 ft | 129 kts | 66° |
| 2026-05-06 15:44 | -22.79964 | -42.59946 | 2497 ft | 130 kts | 66° |
| 2026-05-06 15:44 | -22.79627 | -42.59025 | 2487 ft | 130 kts | 68° |
| 2026-05-06 15:44 | -22.79303 | -42.58151 | 2490 ft | 122 kts | 66° |
| 2026-05-06 15:44 | -22.78981 | -42.57304 | 2493 ft | 121 kts | 67° |
| 2026-05-06 15:45 | -22.78657 | -42.56453 | 2491 ft | 123 kts | 66° |
| 2026-05-06 15:45 | -22.78330 | -42.55609 | 2494 ft | 121 kts | 67° |
| 2026-05-06 15:45 | -22.78005 | -42.54771 | 2490 ft | 119 kts | 68° |
| 2026-05-06 15:45 | -22.77662 | -42.53943 | 2492 ft | 123 kts | 65° |
| 2026-05-06 15:46 | -22.77330 | -42.53102 | 2500 ft | 122 kts | 66° |
| 2026-05-06 15:46 | -22.76999 | -42.52233 | 2495 ft | 126 kts | 67° |
| 2026-05-06 15:46 | -22.76664 | -42.51366 | 2496 ft | 123 kts | 67° |
| 2026-05-06 15:46 | -22.76333 | -42.50513 | 2503 ft | 124 kts | 66° |
| 2026-05-06 15:47 | -22.75986 | -42.49634 | 2506 ft | 129 kts | 67° |
| 2026-05-06 15:47 | -22.75627 | -42.48732 | 2489 ft | 132 kts | 66° |
| 2026-05-06 15:47 | -22.75277 | -42.47847 | 2490 ft | 125 kts | 66° |
| 2026-05-06 15:47 | -22.74928 | -42.46971 | 2496 ft | 128 kts | 67° |
| 2026-05-06 15:48 | -22.74581 | -42.46096 | 2493 ft | 126 kts | 66° |
| 2026-05-06 15:48 | -22.74240 | -42.45224 | 2486 ft | 125 kts | 66° |
| 2026-05-06 15:48 | -22.73908 | -42.44363 | 2498 ft | 122 kts | 66° |
| 2026-05-06 15:48 | -22.73573 | -42.43503 | 2495 ft | 123 kts | 67° |
| 2026-05-06 15:49 | -22.73239 | -42.42659 | 2496 ft | 121 kts | 66° |
| 2026-05-06 15:49 | -22.72908 | -42.41830 | 2496 ft | 117 kts | 66° |
| 2026-05-06 15:49 | -22.72589 | -42.41040 | 2499 ft | 113 kts | 66° |
| 2026-05-06 15:49 | -22.72283 | -42.40258 | 2493 ft | 114 kts | 65° |
| 2026-05-06 15:50 | -22.71997 | -42.39433 | 2502 ft | 119 kts | 66° |
| 2026-05-06 15:50 | -22.71708 | -42.38555 | 2506 ft | 127 kts | 66° |
| 2026-05-06 15:50 | -22.71400 | -42.37652 | 2504 ft | 127 kts | 67° |
| 2026-05-06 15:50 | -22.71076 | -42.36768 | 2505 ft | 129 kts | 67° |
| 2026-05-06 15:51 | -22.70728 | -42.35860 | 2504 ft | 131 kts | 66° |
| 2026-05-06 15:51 | -22.70372 | -42.34939 | 2496 ft | 132 kts | 67° |
| 2026-05-06 15:51 | -22.69998 | -42.34070 | 2507 ft | 124 kts | 63° |
| 2026-05-06 15:51 | -22.69628 | -42.33260 | 2488 ft | 114 kts | 63° |
| 2026-05-06 15:52 | -22.69291 | -42.32518 | 2490 ft | 106 kts | 63° |
| 2026-05-06 15:52 | -22.68967 | -42.31809 | 2495 ft | 102 kts | 63° |
| 2026-05-06 15:52 | -22.68652 | -42.31117 | 2495 ft | 104 kts | 63° |
| 2026-05-06 15:52 | -22.68331 | -42.30416 | 2492 ft | 103 kts | 63° |
| 2026-05-06 15:53 | -22.68011 | -42.29710 | 2502 ft | 108 kts | 64° |
| 2026-05-06 15:53 | -22.67674 | -42.28972 | 2505 ft | 109 kts | 63° |
| 2026-05-06 15:53 | -22.67348 | -42.28254 | 2491 ft | 102 kts | 64° |
| 2026-05-06 15:53 | -22.67043 | -42.27596 | 2497 ft | 97 kts | 62° |
| 2026-05-06 15:54 | -22.66752 | -42.26925 | 2499 ft | 102 kts | 63° |
| 2026-05-06 15:54 | -22.66453 | -42.26260 | 2492 ft | 91 kts | 63° |
| 2026-05-06 15:54 | -22.66177 | -42.25657 | 2492 ft | 89 kts | 62° |
| 2026-05-06 15:54 | -22.65916 | -42.25065 | 2489 ft | 83 kts | 63° |
| 2026-05-06 15:55 | -22.65670 | -42.24529 | 2494 ft | 81 kts | 63° |
| 2026-05-06 15:55 | -22.65402 | -42.23943 | 2500 ft | 92 kts | 63° |
| 2026-05-06 15:55 | -22.65105 | -42.23297 | 2508 ft | 101 kts | 63° |
| 2026-05-06 15:55 | -22.64780 | -42.22587 | 2506 ft | 107 kts | 63° |
| 2026-05-06 15:56 | -22.64442 | -42.21860 | 2500 ft | 107 kts | 63° |
| 2026-05-06 15:56 | -22.64107 | -42.21157 | 2504 ft | 104 kts | 63° |
| 2026-05-06 15:56 | -22.63791 | -42.20467 | 2497 ft | 102 kts | 64° |
| 2026-05-06 15:56 | -22.63468 | -42.19794 | 2497 ft | 101 kts | 63° |
| 2026-05-06 15:57 | -22.63169 | -42.19123 | 2489 ft | 97 kts | 62° |
| 2026-05-06 15:57 | -22.62912 | -42.18456 | 2506 ft | 95 kts | 62° |
| 2026-05-06 15:57 | -22.62682 | -42.17814 | 2507 ft | 88 kts | 64° |
| 2026-05-06 15:57 | -22.62453 | -42.17231 | 2519 ft | 86 kts | 63° |
| 2026-05-06 15:58 | -22.62204 | -42.16634 | 2508 ft | 87 kts | 63° |
| 2026-05-06 15:58 | -22.61964 | -42.16044 | 2511 ft | 83 kts | 62° |
| 2026-05-06 15:58 | -22.61730 | -42.15435 | 2522 ft | 93 kts | 61° |
| 2026-05-06 15:58 | -22.61467 | -42.14784 | 2518 ft | 93 kts | 63° |
| 2026-05-06 15:59 | -22.61212 | -42.14158 | 2518 ft | 90 kts | 63° |
| 2026-05-06 15:59 | -22.60975 | -42.13545 | 2516 ft | 86 kts | 62° |
| 2026-05-06 15:59 | -22.60745 | -42.12920 | 2526 ft | 93 kts | 63° |
| 2026-05-06 15:59 | -22.60484 | -42.12264 | 2522 ft | 98 kts | 62° |
| 2026-05-06 16:00 | -22.60224 | -42.11595 | 2511 ft | 94 kts | 64° |
| 2026-05-06 16:00 | -22.59977 | -42.10958 | 2513 ft | 93 kts | 63° |
| 2026-05-06 16:00 | -22.59725 | -42.10301 | 2515 ft | 94 kts | 63° |
| 2026-05-06 16:00 | -22.59484 | -42.09653 | 2509 ft | 92 kts | 63° |
| 2026-05-06 16:01 | -22.59257 | -42.09019 | 2518 ft | 90 kts | 62° |
| 2026-05-06 16:01 | -22.58998 | -42.08358 | 2527 ft | 101 kts | 62° |
| 2026-05-06 16:01 | -22.58717 | -42.07656 | 2513 ft | 99 kts | 63° |
| 2026-05-06 16:01 | -22.58442 | -42.06979 | 2512 ft | 96 kts | 62° |
| 2026-05-06 16:02 | -22.58169 | -42.06316 | 2518 ft | 102 kts | 63° |
| 2026-05-06 16:02 | -22.57859 | -42.05569 | 2519 ft | 116 kts | 62° |
| 2026-05-06 16:02 | -22.57514 | -42.04756 | 2526 ft | 119 kts | 64° |
| 2026-05-06 16:02 | -22.57129 | -42.03958 | 2521 ft | 121 kts | 62° |
| 2026-05-06 16:03 | -22.56736 | -42.03137 | 2523 ft | 125 kts | 62° |
| 2026-05-06 16:03 | -22.56340 | -42.02294 | 2523 ft | 127 kts | 62° |
| 2026-05-06 16:03 | -22.55941 | -42.01430 | 2520 ft | 130 kts | 63° |
| 2026-05-06 16:03 | -22.55540 | -42.00581 | 2514 ft | 124 kts | 63° |
| 2026-05-06 16:04 | -22.55143 | -41.99748 | 2518 ft | 125 kts | 62° |
| 2026-05-06 16:04 | -22.54745 | -41.98900 | 2517 ft | 128 kts | 63° |
| 2026-05-06 16:04 | -22.54352 | -41.98040 | 2516 ft | 127 kts | 62° |
| 2026-05-06 16:04 | -22.54000 | -41.97176 | 2515 ft | 126 kts | 63° |
| 2026-05-06 16:05 | -22.53633 | -41.96305 | 2509 ft | 127 kts | 62° |
| 2026-05-06 16:05 | -22.53282 | -41.95438 | 2504 ft | 124 kts | 63° |
| 2026-05-06 16:05 | -22.52944 | -41.94607 | 2503 ft | 120 kts | 62° |
| 2026-05-06 16:05 | -22.52591 | -41.93770 | 2510 ft | 124 kts | 62° |
| 2026-05-06 16:06 | -22.52149 | -41.92973 | 2510 ft | 125 kts | 46° |
| 2026-05-06 16:06 | -22.51564 | -41.92273 | 2510 ft | 125 kts | 47° |
| 2026-05-06 16:06 | -22.51003 | -41.91620 | 2410 ft | 109 kts | 47° |
| 2026-05-06 16:06 | -22.50492 | -41.91047 | 2345 ft | 105 kts | 43° |
| 2026-05-06 16:07 | -22.49985 | -41.90479 | 2299 ft | 106 kts | 45° |
| 2026-05-06 16:07 | -22.49446 | -41.89911 | 2251 ft | 109 kts | 44° |
| 2026-05-06 16:07 | -22.48880 | -41.89388 | 2197 ft | 107 kts | 39° |
| 2026-05-06 16:07 | -22.48307 | -41.88885 | 2138 ft | 102 kts | 39° |
| 2026-05-06 16:08 | -22.47762 | -41.88380 | 2093 ft | 107 kts | 39° |
| 2026-05-06 16:08 | -22.47175 | -41.87849 | 2061 ft | 116 kts | 39° |
| 2026-05-06 16:08 | -22.46531 | -41.87289 | 2013 ft | 119 kts | 39° |
| 2026-05-06 16:08 | -22.45878 | -41.86727 | 1974 ft | 121 kts | 39° |
| 2026-05-06 16:09 | -22.45252 | -41.86174 | 1909 ft | 111 kts | 39° |
| 2026-05-06 16:09 | -22.44653 | -41.85632 | 1873 ft | 115 kts | 39° |
| 2026-05-06 16:09 | -22.44033 | -41.85094 | 1810 ft | 113 kts | 39° |
| 2026-05-06 16:09 | -22.43460 | -41.84510 | 1769 ft | 113 kts | 58° |
| 2026-05-06 16:10 | -22.43154 | -41.83821 | 1704 ft | 92 kts | 63° |
| 2026-05-06 16:10 | -22.42899 | -41.83240 | 1606 ft | 79 kts | 63° |
| 2026-05-06 16:10 | -22.42666 | -41.82734 | 1433 ft | 72 kts | 62° |
| 2026-05-06 16:10 | -22.42449 | -41.82263 | 1270 ft | 67 kts | 63° |
| 2026-05-06 16:11 | -22.42233 | -41.81822 | 1117 ft | 69 kts | 60° |
| 2026-05-06 16:11 | -22.42006 | -41.81313 | 1150 ft | 82 kts | 57° |
| 2026-05-06 16:11 | -22.41582 | -41.80838 | 1149 ft | 93 kts | 37° |
| 2026-05-06 16:11 | -22.41011 | -41.80516 | 1155 ft | 93 kts | 27° |
| 2026-05-06 16:12 | -22.40375 | -41.80246 | 1150 ft | 100 kts | 28° |
| 2026-05-06 16:12 | -22.39782 | -41.79994 | 1106 ft | 84 kts | 27° |
| 2026-05-06 16:12 | -22.39236 | -41.79797 | 1063 ft | 81 kts | 25° |
| 2026-05-06 16:12 | -22.38692 | -41.79580 | 975 ft | 84 kts | 29° |
| 2026-05-06 16:13 | -22.38165 | -41.79391 | 796 ft | 75 kts | 25° |
| 2026-05-06 16:13 | -22.37677 | -41.79190 | 758 ft | 76 kts | 28° |
| 2026-05-06 16:13 | -22.37229 | -41.78926 | 677 ft | 67 kts | 43° |
| 2026-05-06 16:13 | -22.36862 | -41.78619 | 538 ft | 65 kts | 46° |
| 2026-05-06 16:14 | -22.36495 | -41.78330 | 441 ft | 65 kts | 52° |
| 2026-05-06 16:14 | -22.36153 | -41.78005 | 396 ft | 66 kts | 50° |
| 2026-05-06 16:14 | -22.35918 | -41.77796 | 341 ft | 69 kts | 43° |
| 2026-05-06 16:14 | -22.35505 | -41.77480 | 221 ft | 73 kts | 44° |
| 2026-05-06 16:15 | -22.35091 | -41.77174 | 100 ft | 68 kts | 40° |
| 2026-05-06 16:15 | -22.34700 | -41.76887 | 19 ft | 64 kts | 40° |
| 2026-05-06 16:15 | -22.34420 | -41.76688 | 12 ft | 19 kts | 31° |
| 2026-05-06 16:15 | -22.34360 | -41.76649 | 13 ft | 2 kts | 42° |
| 2026-05-06 16:16 | -22.34352 | -41.76642 | 13 ft | 6 kts | 35° |
| 2026-05-06 16:16 | -22.34305 | -41.76607 | 13 ft | 11 kts | 33° |
| 2026-05-06 16:16 | -22.34230 | -41.76555 | 11 ft | 14 kts | 33° |
| 2026-05-06 16:16 | -22.34169 | -41.76491 | 11 ft | 10 kts | 93° |
| 2026-05-06 16:17 | -22.34208 | -41.76439 | 11 ft | 10 kts | 154° |
| 2026-05-06 16:17 | -22.34287 | -41.76480 | 12 ft | 14 kts | 214° |
| 2026-05-06 16:17 | -22.34368 | -41.76540 | 14 ft | 14 kts | 214° |
| 2026-05-06 16:17 | -22.34458 | -41.76593 | 14 ft | 15 kts | 191° |
| 2026-05-06 16:18 | -22.34516 | -41.76584 | 14 ft | 5 kts | 195° |
| 2026-05-06 16:18 | -22.34526 | -41.76598 | 14 ft | 0 kts | 288° |